sensor_id;sensor_type;location;lat;lon;timestamp;temperature;humidity
73643;DHT22;61938;48.652;9.292;2023-05-08T00:00:18;14.20;99.90
73643;DHT22;61938;48.652;9.292;2023-05-08T00:02:43;14.20;99.90
73643;DHT22;61938;48.652;9.292;2023-05-08T00:05:09;14.30;99.90
73643;DHT22;61938;48.652;9.292;2023-05-08T00:07:35;14.30;99.90
73643;DHT22;61938;48.652;9.292;2023-05-08T00:10:02;15.00;99.90
73643;DHT22;61938;48.652;9.292;2023-05-08T00:12:28;14.30;99.90
73643;DHT22;61938;48.652;9.292;2023-05-08T00:14:54;14.30;99.90
73643;DHT22;61938;48.652;9.292;2023-05-08T00:17:19;14.30;99.90
73643;DHT22;61938;48.652;9.292;2023-05-08T00:19:45;14.30;99.90
73643;DHT22;61938;48.652;9.292;2023-05-08T00:22:10;14.30;99.90
73643;DHT22;61938;48.652;9.292;2023-05-08T00:24:36;14.30;99.90
73643;DHT22;61938;48.652;9.292;2023-05-08T00:27:01;14.30;99.90
73643;DHT22;61938;48.652;9.292;2023-05-08T00:29:27;14.30;99.90
73643;DHT22;61938;48.652;9.292;2023-05-08T00:31:52;14.30;99.90
73643;DHT22;61938;48.652;9.292;2023-05-08T00:34:18;14.20;99.90
73643;DHT22;61938;48.652;9.292;2023-05-08T00:36:43;14.20;99.90
73643;DHT22;61938;48.652;9.292;2023-05-08T00:39:09;14.20;99.90
73643;DHT22;61938;48.652;9.292;2023-05-08T00:41:34;14.20;99.90
73643;DHT22;61938;48.652;9.292;2023-05-08T00:44:00;14.00;99.90
73643;DHT22;61938;48.652;9.292;2023-05-08T00:46:25;14.20;99.90
73643;DHT22;61938;48.652;9.292;2023-05-08T00:48:51;14.20;99.90
73643;DHT22;61938;48.652;9.292;2023-05-08T00:51:17;14.20;99.90
73643;DHT22;61938;48.652;9.292;2023-05-08T00:53:43;14.20;99.90
73643;DHT22;61938;48.652;9.292;2023-05-08T00:56:12;14.20;99.90
73643;DHT22;61938;48.652;9.292;2023-05-08T00:58:39;14.20;99.90
73643;DHT22;61938;48.652;9.292;2023-05-08T01:01:05;14.20;99.90
73643;DHT22;61938;48.652;9.292;2023-05-08T01:03:32;14.20;99.90
73643;DHT22;61938;48.652;9.292;2023-05-08T01:05:58;14.20;99.90
73643;DHT22;61938;48.652;9.292;2023-05-08T01:08:24;14.20;99.90
73643;DHT22;61938;48.652;9.292;2023-05-08T01:16:27;14.10;99.90
73643;DHT22;61938;48.652;9.292;2023-05-08T01:19:06;14.10;99.90
73643;DHT22;61938;48.652;9.292;2023-05-08T01:21:44;14.10;99.90
73643;DHT22;61938;48.652;9.292;2023-05-08T01:24:40;14.00;99.90
73643;DHT22;61938;48.652;9.292;2023-05-08T01:28:11;14.00;99.90
73643;DHT22;61938;48.652;9.292;2023-05-08T01:32:57;14.10;99.90
73643;DHT22;61938;48.652;9.292;2023-05-08T01:35:33;14.10;99.90
73643;DHT22;61938;48.652;9.292;2023-05-08T01:38:24;14.10;99.90
73643;DHT22;61938;48.652;9.292;2023-05-08T01:41:13;14.00;99.90
73643;DHT22;61938;48.652;9.292;2023-05-08T01:46:15;14.10;99.90
73643;DHT22;61938;48.652;9.292;2023-05-08T01:48:48;14.10;99.90
73643;DHT22;61938;48.652;9.292;2023-05-08T01:51:22;14.00;99.90
73643;DHT22;61938;48.652;9.292;2023-05-08T01:53:58;14.10;99.90
73643;DHT22;61938;48.652;9.292;2023-05-08T01:56:27;14.10;99.90
73643;DHT22;61938;48.652;9.292;2023-05-08T01:58:55;14.10;99.90
73643;DHT22;61938;48.652;9.292;2023-05-08T02:01:23;14.10;99.90
73643;DHT22;61938;48.652;9.292;2023-05-08T02:03:51;14.10;99.90
73643;DHT22;61938;48.652;9.292;2023-05-08T02:06:19;14.10;99.90
73643;DHT22;61938;48.652;9.292;2023-05-08T02:08:46;14.10;99.90
73643;DHT22;61938;48.652;9.292;2023-05-08T02:11:14;14.10;99.90
73643;DHT22;61938;48.652;9.292;2023-05-08T02:13:41;14.00;99.90
73643;DHT22;61938;48.652;9.292;2023-05-08T02:16:09;14.00;99.90
73643;DHT22;61938;48.652;9.292;2023-05-08T02:18:38;14.00;99.90
73643;DHT22;61938;48.652;9.292;2023-05-08T02:21:04;14.00;99.90
73643;DHT22;61938;48.652;9.292;2023-05-08T02:23:30;14.00;99.90
73643;DHT22;61938;48.652;9.292;2023-05-08T02:25:59;14.00;99.90
73643;DHT22;61938;48.652;9.292;2023-05-08T02:28:26;13.90;99.90
73643;DHT22;61938;48.652;9.292;2023-05-08T02:30:55;13.90;99.90
73643;DHT22;61938;48.652;9.292;2023-05-08T02:33:21;13.90;99.90
73643;DHT22;61938;48.652;9.292;2023-05-08T02:35:49;13.90;99.90
73643;DHT22;61938;48.652;9.292;2023-05-08T02:38:17;14.00;99.90
73643;DHT22;61938;48.652;9.292;2023-05-08T02:40:47;14.00;99.90
73643;DHT22;61938;48.652;9.292;2023-05-08T02:43:14;14.00;99.90
73643;DHT22;61938;48.652;9.292;2023-05-08T02:45:47;14.00;99.90
73643;DHT22;61938;48.652;9.292;2023-05-08T02:53:35;13.90;99.90
73643;DHT22;61938;48.652;9.292;2023-05-08T02:56:08;13.90;99.90
73643;DHT22;61938;48.652;9.292;2023-05-08T02:59:02;13.90;99.90
73643;DHT22;61938;48.652;9.292;2023-05-08T03:01:41;13.90;99.90
73643;DHT22;61938;48.652;9.292;2023-05-08T03:04:10;13.80;99.90
73643;DHT22;61938;48.652;9.292;2023-05-08T03:06:40;13.80;99.90
73643;DHT22;61938;48.652;9.292;2023-05-08T03:09:14;13.80;99.90
73643;DHT22;61938;48.652;9.292;2023-05-08T03:11:42;13.80;99.90
73643;DHT22;61938;48.652;9.292;2023-05-08T03:14:11;13.80;99.90
73643;DHT22;61938;48.652;9.292;2023-05-08T03:16:40;13.80;99.90
73643;DHT22;61938;48.652;9.292;2023-05-08T03:19:19;13.80;99.90
73643;DHT22;61938;48.652;9.292;2023-05-08T03:21:47;13.80;99.90
73643;DHT22;61938;48.652;9.292;2023-05-08T03:24:14;13.80;99.90
73643;DHT22;61938;48.652;9.292;2023-05-08T03:26:42;13.80;99.90
73643;DHT22;61938;48.652;9.292;2023-05-08T03:29:07;13.80;99.90
73643;DHT22;61938;48.652;9.292;2023-05-08T03:31:34;13.80;99.90
73643;DHT22;61938;48.652;9.292;2023-05-08T03:34:01;13.80;99.90
73643;DHT22;61938;48.652;9.292;2023-05-08T03:36:27;13.80;99.90
73643;DHT22;61938;48.652;9.292;2023-05-08T03:38:53;13.70;99.90
73643;DHT22;61938;48.652;9.292;2023-05-08T03:41:19;13.80;99.90
73643;DHT22;61938;48.652;9.292;2023-05-08T03:43:45;13.70;99.90
73643;DHT22;61938;48.652;9.292;2023-05-08T03:46:11;13.80;99.90
73643;DHT22;61938;48.652;9.292;2023-05-08T03:48:37;13.80;99.90
73643;DHT22;61938;48.652;9.292;2023-05-08T03:51:03;13.70;99.90
73643;DHT22;61938;48.652;9.292;2023-05-08T03:53:30;13.80;99.90
73643;DHT22;61938;48.652;9.292;2023-05-08T03:55:57;13.80;99.90
73643;DHT22;61938;48.652;9.292;2023-05-08T03:58:43;13.80;99.90
73643;DHT22;61938;48.652;9.292;2023-05-08T04:01:30;13.80;99.90
73643;DHT22;61938;48.652;9.292;2023-05-08T04:04:05;13.80;99.90
73643;DHT22;61938;48.652;9.292;2023-05-08T04:13:44;13.80;99.90
73643;DHT22;61938;48.652;9.292;2023-05-08T04:16:19;13.70;99.90
73643;DHT22;61938;48.652;9.292;2023-05-08T04:18:48;13.70;99.90
73643;DHT22;61938;48.652;9.292;2023-05-08T04:21:18;13.70;99.90
73643;DHT22;61938;48.652;9.292;2023-05-08T04:23:45;13.70;99.90
73643;DHT22;61938;48.652;9.292;2023-05-08T04:26:13;13.80;99.90
73643;DHT22;61938;48.652;9.292;2023-05-08T04:28:41;13.70;99.90
73643;DHT22;61938;48.652;9.292;2023-05-08T04:31:07;13.80;99.90
73643;DHT22;61938;48.652;9.292;2023-05-08T04:33:34;13.70;99.90
73643;DHT22;61938;48.652;9.292;2023-05-08T04:36:03;13.80;99.90
73643;DHT22;61938;48.652;9.292;2023-05-08T04:38:28;13.80;99.90
73643;DHT22;61938;48.652;9.292;2023-05-08T04:40:54;13.80;99.90
73643;DHT22;61938;48.652;9.292;2023-05-08T04:43:20;13.80;99.90
73643;DHT22;61938;48.652;9.292;2023-05-08T04:45:46;14.40;99.90
73643;DHT22;61938;48.652;9.292;2023-05-08T04:48:11;13.80;99.90
73643;DHT22;61938;48.652;9.292;2023-05-08T04:50:37;13.80;99.90
73643;DHT22;61938;48.652;9.292;2023-05-08T04:53:03;13.80;99.90
73643;DHT22;61938;48.652;9.292;2023-05-08T04:55:28;13.80;99.90
73643;DHT22;61938;48.652;9.292;2023-05-08T04:57:54;13.80;99.90
73643;DHT22;61938;48.652;9.292;2023-05-08T05:00:19;13.80;99.90
73643;DHT22;61938;48.652;9.292;2023-05-08T05:02:45;13.80;99.90
73643;DHT22;61938;48.652;9.292;2023-05-08T05:05:10;13.90;99.90
73643;DHT22;61938;48.652;9.292;2023-05-08T05:07:36;13.90;99.90
73643;DHT22;61938;48.652;9.292;2023-05-08T05:10:02;13.90;99.90
73643;DHT22;61938;48.652;9.292;2023-05-08T05:12:28;14.00;99.90
73643;DHT22;61938;48.652;9.292;2023-05-08T05:14:53;14.00;99.90
73643;DHT22;61938;48.652;9.292;2023-05-08T05:17:19;14.00;99.90
73643;DHT22;61938;48.652;9.292;2023-05-08T05:19:44;14.10;99.90
73643;DHT22;61938;48.652;9.292;2023-05-08T05:22:10;14.10;99.90
73643;DHT22;61938;48.652;9.292;2023-05-08T05:24:35;14.10;99.90
73643;DHT22;61938;48.652;9.292;2023-05-08T05:27:02;14.20;99.90
73643;DHT22;61938;48.652;9.292;2023-05-08T05:29:27;14.20;99.90
73643;DHT22;61938;48.652;9.292;2023-05-08T05:31:53;14.30;99.90
73643;DHT22;61938;48.652;9.292;2023-05-08T05:34:18;14.30;99.90
73643;DHT22;61938;48.652;9.292;2023-05-08T05:36:44;14.30;99.90
73643;DHT22;61938;48.652;9.292;2023-05-08T05:39:09;14.30;99.90
73643;DHT22;61938;48.652;9.292;2023-05-08T05:41:35;14.30;99.90
73643;DHT22;61938;48.652;9.292;2023-05-08T05:44:00;14.30;99.90
73643;DHT22;61938;48.652;9.292;2023-05-08T05:46:26;14.30;99.90
73643;DHT22;61938;48.652;9.292;2023-05-08T05:48:59;14.40;99.90
73643;DHT22;61938;48.652;9.292;2023-05-08T05:51:25;14.40;99.90
73643;DHT22;61938;48.652;9.292;2023-05-08T05:53:52;14.30;99.90
73643;DHT22;61938;48.652;9.292;2023-05-08T05:56:18;14.40;99.90
73643;DHT22;61938;48.652;9.292;2023-05-08T05:58:43;14.30;99.90
73643;DHT22;61938;48.652;9.292;2023-05-08T06:01:10;14.30;99.90
73643;DHT22;61938;48.652;9.292;2023-05-08T06:03:36;14.30;99.90
73643;DHT22;61938;48.652;9.292;2023-05-08T06:06:02;14.30;99.90
73643;DHT22;61938;48.652;9.292;2023-05-08T06:08:28;14.30;99.90
73643;DHT22;61938;48.652;9.292;2023-05-08T06:10:53;14.30;99.90
73643;DHT22;61938;48.652;9.292;2023-05-08T06:13:19;14.30;99.90
73643;DHT22;61938;48.652;9.292;2023-05-08T06:15:45;14.20;99.90
73643;DHT22;61938;48.652;9.292;2023-05-08T06:18:10;14.30;99.90
73643;DHT22;61938;48.652;9.292;2023-05-08T06:20:37;14.30;99.90
73643;DHT22;61938;48.652;9.292;2023-05-08T06:23:03;14.30;99.90
73643;DHT22;61938;48.652;9.292;2023-05-08T06:25:28;14.30;99.90
73643;DHT22;61938;48.652;9.292;2023-05-08T06:27:55;14.40;99.90
73643;DHT22;61938;48.652;9.292;2023-05-08T06:30:21;14.40;99.90
73643;DHT22;61938;48.652;9.292;2023-05-08T06:32:47;14.40;99.90
73643;DHT22;61938;48.652;9.292;2023-05-08T06:35:12;14.40;99.90
73643;DHT22;61938;48.652;9.292;2023-05-08T06:37:43;14.40;99.90
73643;DHT22;61938;48.652;9.292;2023-05-08T06:40:09;14.30;99.90
73643;DHT22;61938;48.652;9.292;2023-05-08T06:42:35;14.30;99.90
73643;DHT22;61938;48.652;9.292;2023-05-08T06:45:01;14.40;99.90
73643;DHT22;61938;48.652;9.292;2023-05-08T06:47:26;14.40;99.90
73643;DHT22;61938;48.652;9.292;2023-05-08T06:49:52;14.40;99.90
73643;DHT22;61938;48.652;9.292;2023-05-08T06:52:18;14.40;99.90
73643;DHT22;61938;48.652;9.292;2023-05-08T06:54:44;14.50;99.90
73643;DHT22;61938;48.652;9.292;2023-05-08T06:57:10;14.50;99.90
73643;DHT22;61938;48.652;9.292;2023-05-08T06:59:37;14.60;99.90
73643;DHT22;61938;48.652;9.292;2023-05-08T07:02:03;14.60;99.90
73643;DHT22;61938;48.652;9.292;2023-05-08T07:04:29;14.60;99.90
73643;DHT22;61938;48.652;9.292;2023-05-08T07:06:54;14.60;99.90
73643;DHT22;61938;48.652;9.292;2023-05-08T07:09:20;14.60;99.90
73643;DHT22;61938;48.652;9.292;2023-05-08T07:11:45;14.60;99.90
73643;DHT22;61938;48.652;9.292;2023-05-08T07:14:12;14.60;99.90
73643;DHT22;61938;48.652;9.292;2023-05-08T07:16:38;14.60;99.90
73643;DHT22;61938;48.652;9.292;2023-05-08T07:19:03;14.50;99.90
73643;DHT22;61938;48.652;9.292;2023-05-08T07:21:29;14.50;99.90
73643;DHT22;61938;48.652;9.292;2023-05-08T07:23:55;14.50;99.90
73643;DHT22;61938;48.652;9.292;2023-05-08T07:26:20;14.50;99.90
73643;DHT22;61938;48.652;9.292;2023-05-08T07:28:47;14.50;99.90
73643;DHT22;61938;48.652;9.292;2023-05-08T07:31:13;14.50;99.90
73643;DHT22;61938;48.652;9.292;2023-05-08T07:33:39;14.50;99.90
73643;DHT22;61938;48.652;9.292;2023-05-08T07:36:05;14.50;99.90
73643;DHT22;61938;48.652;9.292;2023-05-08T07:38:30;14.50;99.90
73643;DHT22;61938;48.652;9.292;2023-05-08T07:40:56;14.50;99.90
73643;DHT22;61938;48.652;9.292;2023-05-08T07:43:23;14.50;99.90
73643;DHT22;61938;48.652;9.292;2023-05-08T07:45:49;14.40;99.90
73643;DHT22;61938;48.652;9.292;2023-05-08T07:48:15;14.40;99.90
73643;DHT22;61938;48.652;9.292;2023-05-08T07:50:40;14.40;99.90
73643;DHT22;61938;48.652;9.292;2023-05-08T07:53:06;14.50;99.90
73643;DHT22;61938;48.652;9.292;2023-05-08T07:55:31;14.40;99.90
73643;DHT22;61938;48.652;9.292;2023-05-08T07:57:57;14.50;99.90
73643;DHT22;61938;48.652;9.292;2023-05-08T08:00:23;14.50;99.90
73643;DHT22;61938;48.652;9.292;2023-05-08T08:02:51;14.50;99.90
73643;DHT22;61938;48.652;9.292;2023-05-08T08:05:17;14.50;99.90
73643;DHT22;61938;48.652;9.292;2023-05-08T08:07:43;14.50;99.90
73643;DHT22;61938;48.652;9.292;2023-05-08T08:10:08;14.40;99.90
73643;DHT22;61938;48.652;9.292;2023-05-08T08:12:34;14.40;99.90
73643;DHT22;61938;48.652;9.292;2023-05-08T08:14:59;14.40;99.90
73643;DHT22;61938;48.652;9.292;2023-05-08T08:17:25;14.40;99.90
73643;DHT22;61938;48.652;9.292;2023-05-08T08:19:50;14.30;99.90
73643;DHT22;61938;48.652;9.292;2023-05-08T08:22:16;14.30;99.90
73643;DHT22;61938;48.652;9.292;2023-05-08T08:24:41;14.30;99.90
73643;DHT22;61938;48.652;9.292;2023-05-08T08:27:07;14.40;99.90
73643;DHT22;61938;48.652;9.292;2023-05-08T08:29:32;14.40;99.90
73643;DHT22;61938;48.652;9.292;2023-05-08T08:31:58;14.40;99.90
73643;DHT22;61938;48.652;9.292;2023-05-08T08:34:24;14.40;99.90
73643;DHT22;61938;48.652;9.292;2023-05-08T08:36:50;14.40;99.90
73643;DHT22;61938;48.652;9.292;2023-05-08T08:39:15;14.50;99.90
73643;DHT22;61938;48.652;9.292;2023-05-08T08:41:41;14.60;99.90
73643;DHT22;61938;48.652;9.292;2023-05-08T08:44:07;14.70;99.90
73643;DHT22;61938;48.652;9.292;2023-05-08T08:46:32;14.80;99.90
73643;DHT22;61938;48.652;9.292;2023-05-08T08:49:02;14.90;99.90
73643;DHT22;61938;48.652;9.292;2023-05-08T08:51:34;14.90;99.90
73643;DHT22;61938;48.652;9.292;2023-05-08T08:56:26;15.10;99.90
73643;DHT22;61938;48.652;9.292;2023-05-08T08:58:55;15.20;99.90
73643;DHT22;61938;48.652;9.292;2023-05-08T09:01:23;15.30;99.90
73643;DHT22;61938;48.652;9.292;2023-05-08T09:03:50;15.40;99.90
73643;DHT22;61938;48.652;9.292;2023-05-08T09:06:15;15.40;99.90
73643;DHT22;61938;48.652;9.292;2023-05-08T09:08:41;15.50;99.90
73643;DHT22;61938;48.652;9.292;2023-05-08T09:11:07;15.70;99.90
73643;DHT22;61938;48.652;9.292;2023-05-08T09:13:32;15.70;99.90
73643;DHT22;61938;48.652;9.292;2023-05-08T09:15:59;15.90;99.90
73643;DHT22;61938;48.652;9.292;2023-05-08T09:18:24;16.00;99.90
73643;DHT22;61938;48.652;9.292;2023-05-08T09:20:50;16.10;99.90
73643;DHT22;61938;48.652;9.292;2023-05-08T09:23:16;16.20;99.90
73643;DHT22;61938;48.652;9.292;2023-05-08T09:25:46;16.20;99.90
73643;DHT22;61938;48.652;9.292;2023-05-08T09:28:19;16.40;99.90
73643;DHT22;61938;48.652;9.292;2023-05-08T09:33:19;16.40;99.90
73643;DHT22;61938;48.652;9.292;2023-05-08T09:35:45;16.40;99.90
73643;DHT22;61938;48.652;9.292;2023-05-08T09:38:42;16.60;99.90
73643;DHT22;61938;48.652;9.292;2023-05-08T09:41:13;16.70;99.90
73643;DHT22;61938;48.652;9.292;2023-05-08T09:43:39;16.70;99.90
73643;DHT22;61938;48.652;9.292;2023-05-08T09:48:43;16.80;99.90
73643;DHT22;61938;48.652;9.292;2023-05-08T09:51:10;16.70;99.90
73643;DHT22;61938;48.652;9.292;2023-05-08T09:53:36;16.80;99.90
73643;DHT22;61938;48.652;9.292;2023-05-08T09:56:02;16.80;99.90
73643;DHT22;61938;48.652;9.292;2023-05-08T09:58:39;16.70;99.90
73643;DHT22;61938;48.652;9.292;2023-05-08T10:01:27;16.60;99.90
73643;DHT22;61938;48.652;9.292;2023-05-08T10:03:51;16.50;99.90
73643;DHT22;61938;48.652;9.292;2023-05-08T10:06:17;16.50;99.90
73643;DHT22;61938;48.652;9.292;2023-05-08T10:08:42;16.50;99.90
73643;DHT22;61938;48.652;9.292;2023-05-08T10:11:15;16.60;99.90
73643;DHT22;61938;48.652;9.292;2023-05-08T10:13:42;16.50;99.90
73643;DHT22;61938;48.652;9.292;2023-05-08T10:16:11;17.00;99.90
73643;DHT22;61938;48.652;9.292;2023-05-08T10:18:39;16.60;99.90
73643;DHT22;61938;48.652;9.292;2023-05-08T10:21:07;16.70;99.90
73643;DHT22;61938;48.652;9.292;2023-05-08T10:23:33;16.80;99.90
73643;DHT22;61938;48.652;9.292;2023-05-08T10:26:07;16.70;99.90
73643;DHT22;61938;48.652;9.292;2023-05-08T10:31:11;16.70;99.90
73643;DHT22;61938;48.652;9.292;2023-05-08T10:33:39;16.70;99.90
73643;DHT22;61938;48.652;9.292;2023-05-08T10:36:06;16.70;99.90
73643;DHT22;61938;48.652;9.292;2023-05-08T10:38:33;16.80;99.90
73643;DHT22;61938;48.652;9.292;2023-05-08T10:40:59;16.80;99.90
73643;DHT22;61938;48.652;9.292;2023-05-08T10:43:28;16.90;99.90
73643;DHT22;61938;48.652;9.292;2023-05-08T10:45:54;16.80;99.90
73643;DHT22;61938;48.652;9.292;2023-05-08T10:48:47;16.70;99.90
73643;DHT22;61938;48.652;9.292;2023-05-08T10:51:46;16.70;99.90
73643;DHT22;61938;48.652;9.292;2023-05-08T10:54:20;16.60;99.90
73643;DHT22;61938;48.652;9.292;2023-05-08T10:56:48;16.70;99.90
73643;DHT22;61938;48.652;9.292;2023-05-08T10:59:18;16.60;99.90
73643;DHT22;61938;48.652;9.292;2023-05-08T11:01:47;16.90;99.90
73643;DHT22;61938;48.652;9.292;2023-05-08T11:04:23;16.70;99.90
73643;DHT22;61938;48.652;9.292;2023-05-08T11:06:49;16.60;99.90
73643;DHT22;61938;48.652;9.292;2023-05-08T11:09:28;16.70;99.90
73643;DHT22;61938;48.652;9.292;2023-05-08T11:12:07;16.70;99.90
73643;DHT22;61938;48.652;9.292;2023-05-08T11:14:35;16.80;99.90
73643;DHT22;61938;48.652;9.292;2023-05-08T11:17:02;16.70;99.90
73643;DHT22;61938;48.652;9.292;2023-05-08T11:19:29;16.80;99.90
73643;DHT22;61938;48.652;9.292;2023-05-08T11:22:13;16.80;99.90
73643;DHT22;61938;48.652;9.292;2023-05-08T11:24:46;16.70;99.90
73643;DHT22;61938;48.652;9.292;2023-05-08T11:27:11;16.60;99.90
73643;DHT22;61938;48.652;9.292;2023-05-08T11:29:37;16.60;99.90
73643;DHT22;61938;48.652;9.292;2023-05-08T11:32:03;16.50;99.90
73643;DHT22;61938;48.652;9.292;2023-05-08T11:34:44;16.50;99.90
73643;DHT22;61938;48.652;9.292;2023-05-08T11:39:41;16.60;99.90
73643;DHT22;61938;48.652;9.292;2023-05-08T11:45:05;18.50;99.90
73643;DHT22;61938;48.652;9.292;2023-05-08T11:47:39;16.70;99.90
73643;DHT22;61938;48.652;9.292;2023-05-08T11:50:07;16.70;99.90
73643;DHT22;61938;48.652;9.292;2023-05-08T11:52:34;16.60;99.90
73643;DHT22;61938;48.652;9.292;2023-05-08T11:55:03;16.60;99.90
73643;DHT22;61938;48.652;9.292;2023-05-08T11:57:29;16.70;99.90
73643;DHT22;61938;48.652;9.292;2023-05-08T11:59:55;16.70;99.90
73643;DHT22;61938;48.652;9.292;2023-05-08T12:02:34;16.80;99.90
73643;DHT22;61938;48.652;9.292;2023-05-08T12:05:00;16.90;99.90
73643;DHT22;61938;48.652;9.292;2023-05-08T12:07:26;16.90;99.90
73643;DHT22;61938;48.652;9.292;2023-05-08T12:09:52;16.90;99.90
73643;DHT22;61938;48.652;9.292;2023-05-08T12:12:17;17.00;99.90
73643;DHT22;61938;48.652;9.292;2023-05-08T12:14:43;17.00;99.90
73643;DHT22;61938;48.652;9.292;2023-05-08T12:17:08;17.10;99.90
73643;DHT22;61938;48.652;9.292;2023-05-08T12:19:34;17.10;99.90
73643;DHT22;61938;48.652;9.292;2023-05-08T12:22:00;17.20;99.90
73643;DHT22;61938;48.652;9.292;2023-05-08T12:24:25;17.30;99.90
73643;DHT22;61938;48.652;9.292;2023-05-08T12:26:54;17.40;99.90
73643;DHT22;61938;48.652;9.292;2023-05-08T12:29:20;18.60;99.90
73643;DHT22;61938;48.652;9.292;2023-05-08T12:31:46;17.40;99.90
73643;DHT22;61938;48.652;9.292;2023-05-08T12:34:12;17.60;99.90
73643;DHT22;61938;48.652;9.292;2023-05-08T12:36:38;17.70;99.90
73643;DHT22;61938;48.652;9.292;2023-05-08T12:39:14;17.70;99.90
73643;DHT22;61938;48.652;9.292;2023-05-08T12:41:51;17.90;99.90
73643;DHT22;61938;48.652;9.292;2023-05-08T12:44:22;18.00;99.90
73643;DHT22;61938;48.652;9.292;2023-05-08T12:46:50;18.10;99.90
73643;DHT22;61938;48.652;9.292;2023-05-08T12:49:28;18.10;99.90
73643;DHT22;61938;48.652;9.292;2023-05-08T12:52:08;18.10;99.90
73643;DHT22;61938;48.652;9.292;2023-05-08T12:54:35;18.10;99.90
73643;DHT22;61938;48.652;9.292;2023-05-08T12:57:09;18.20;99.90
73643;DHT22;61938;48.652;9.292;2023-05-08T12:59:35;18.10;99.90
73643;DHT22;61938;48.652;9.292;2023-05-08T13:02:01;18.20;99.90
73643;DHT22;61938;48.652;9.292;2023-05-08T13:04:26;18.10;99.90
73643;DHT22;61938;48.652;9.292;2023-05-08T13:06:56;18.10;99.90
73643;DHT22;61938;48.652;9.292;2023-05-08T13:09:22;17.80;99.90
73643;DHT22;61938;48.652;9.292;2023-05-08T13:11:48;17.70;99.90
73643;DHT22;61938;48.652;9.292;2023-05-08T13:14:13;17.80;99.90
73643;DHT22;61938;48.652;9.292;2023-05-08T13:16:46;18.00;99.90
73643;DHT22;61938;48.652;9.292;2023-05-08T13:19:16;18.20;99.90
73643;DHT22;61938;48.652;9.292;2023-05-08T13:21:42;18.60;99.90
73643;DHT22;61938;48.652;9.292;2023-05-08T13:24:12;18.40;99.90
73643;DHT22;61938;48.652;9.292;2023-05-08T13:26:38;18.40;99.90
73643;DHT22;61938;48.652;9.292;2023-05-08T13:29:04;18.70;99.90
73643;DHT22;61938;48.652;9.292;2023-05-08T13:31:29;18.70;99.90
73643;DHT22;61938;48.652;9.292;2023-05-08T13:33:55;18.60;99.90
73643;DHT22;61938;48.652;9.292;2023-05-08T13:36:20;18.70;99.90
73643;DHT22;61938;48.652;9.292;2023-05-08T13:38:46;18.50;99.90
73643;DHT22;61938;48.652;9.292;2023-05-08T13:41:11;18.70;99.90
73643;DHT22;61938;48.652;9.292;2023-05-08T13:43:37;19.00;99.90
73643;DHT22;61938;48.652;9.292;2023-05-08T13:46:02;19.20;99.90
73643;DHT22;61938;48.652;9.292;2023-05-08T13:48:28;19.10;99.90
73643;DHT22;61938;48.652;9.292;2023-05-08T13:50:53;18.90;99.90
73643;DHT22;61938;48.652;9.292;2023-05-08T13:53:19;18.80;99.90
73643;DHT22;61938;48.652;9.292;2023-05-08T13:55:44;18.70;99.90
73643;DHT22;61938;48.652;9.292;2023-05-08T13:58:10;18.60;99.90
73643;DHT22;61938;48.652;9.292;2023-05-08T14:00:35;18.60;99.90
73643;DHT22;61938;48.652;9.292;2023-05-08T14:03:01;18.50;99.90
73643;DHT22;61938;48.652;9.292;2023-05-08T14:05:27;18.80;99.90
73643;DHT22;61938;48.652;9.292;2023-05-08T14:07:52;18.50;99.90
73643;DHT22;61938;48.652;9.292;2023-05-08T14:10:18;18.40;99.90
73643;DHT22;61938;48.652;9.292;2023-05-08T14:12:44;18.20;99.90
73643;DHT22;61938;48.652;9.292;2023-05-08T14:15:10;18.20;99.90
73643;DHT22;61938;48.652;9.292;2023-05-08T14:17:36;18.30;99.90
73643;DHT22;61938;48.652;9.292;2023-05-08T14:20:03;18.50;99.90
73643;DHT22;61938;48.652;9.292;2023-05-08T14:22:28;18.80;99.90
73643;DHT22;61938;48.652;9.292;2023-05-08T14:24:54;19.10;99.90
73643;DHT22;61938;48.652;9.292;2023-05-08T14:27:20;19.30;99.90
73643;DHT22;61938;48.652;9.292;2023-05-08T14:29:45;19.40;99.90
73643;DHT22;61938;48.652;9.292;2023-05-08T14:32:11;19.10;99.90
73643;DHT22;61938;48.652;9.292;2023-05-08T14:34:37;18.70;99.90
73643;DHT22;61938;48.652;9.292;2023-05-08T14:37:02;18.70;99.90
73643;DHT22;61938;48.652;9.292;2023-05-08T14:39:28;18.80;99.90
73643;DHT22;61938;48.652;9.292;2023-05-08T14:41:54;18.90;99.90
73643;DHT22;61938;48.652;9.292;2023-05-08T14:44:19;19.00;99.90
73643;DHT22;61938;48.652;9.292;2023-05-08T14:46:45;19.40;99.90
73643;DHT22;61938;48.652;9.292;2023-05-08T14:49:10;19.60;99.90
73643;DHT22;61938;48.652;9.292;2023-05-08T14:51:36;19.40;99.90
73643;DHT22;61938;48.652;9.292;2023-05-08T14:54:01;19.30;99.90
73643;DHT22;61938;48.652;9.292;2023-05-08T14:56:27;19.20;99.90
73643;DHT22;61938;48.652;9.292;2023-05-08T14:58:52;19.10;99.90
73643;DHT22;61938;48.652;9.292;2023-05-08T15:01:20;19.10;99.90
73643;DHT22;61938;48.652;9.292;2023-05-08T15:03:46;19.00;99.90
73643;DHT22;61938;48.652;9.292;2023-05-08T15:06:20;18.80;99.90
73643;DHT22;61938;48.652;9.292;2023-05-08T15:08:46;18.80;99.90
73643;DHT22;61938;48.652;9.292;2023-05-08T15:11:12;18.80;99.90
73643;DHT22;61938;48.652;9.292;2023-05-08T15:13:37;18.80;99.90
73643;DHT22;61938;48.652;9.292;2023-05-08T15:16:03;18.80;99.90
73643;DHT22;61938;48.652;9.292;2023-05-08T15:18:29;18.60;99.90
73643;DHT22;61938;48.652;9.292;2023-05-08T15:20:54;18.30;99.90
73643;DHT22;61938;48.652;9.292;2023-05-08T15:23:20;18.30;99.90
73643;DHT22;61938;48.652;9.292;2023-05-08T15:25:54;18.30;99.90
73643;DHT22;61938;48.652;9.292;2023-05-08T15:28:20;18.30;99.90
73643;DHT22;61938;48.652;9.292;2023-05-08T15:30:46;18.30;99.90
73643;DHT22;61938;48.652;9.292;2023-05-08T15:33:11;18.20;99.90
73643;DHT22;61938;48.652;9.292;2023-05-08T15:35:37;18.30;99.90
73643;DHT22;61938;48.652;9.292;2023-05-08T15:38:03;18.10;99.90
73643;DHT22;61938;48.652;9.292;2023-05-08T15:40:31;18.00;99.90
73643;DHT22;61938;48.652;9.292;2023-05-08T15:42:56;17.80;99.90
73643;DHT22;61938;48.652;9.292;2023-05-08T15:45:22;17.80;99.90
73643;DHT22;61938;48.652;9.292;2023-05-08T15:47:47;17.80;99.90
73643;DHT22;61938;48.652;9.292;2023-05-08T15:50:13;17.70;99.90
73643;DHT22;61938;48.652;9.292;2023-05-08T15:52:39;17.60;99.90
73643;DHT22;61938;48.652;9.292;2023-05-08T15:55:04;17.70;99.90
73643;DHT22;61938;48.652;9.292;2023-05-08T15:57:30;17.70;99.90
73643;DHT22;61938;48.652;9.292;2023-05-08T15:59:55;17.80;99.90
73643;DHT22;61938;48.652;9.292;2023-05-08T16:02:21;17.70;99.90
73643;DHT22;61938;48.652;9.292;2023-05-08T16:04:46;17.70;99.90
73643;DHT22;61938;48.652;9.292;2023-05-08T16:07:12;17.50;99.90
73643;DHT22;61938;48.652;9.292;2023-05-08T16:09:37;17.60;99.90
73643;DHT22;61938;48.652;9.292;2023-05-08T16:12:03;17.50;99.90